createdAt,value
2017-09-23T00:00:20.550Z,15.98
2017-09-23T00:01:20.549Z,15.92
2017-09-23T00:02:20.548Z,15.95
2017-09-23T00:03:20.546Z,15.96
2017-09-23T00:04:20.544Z,15.96
2017-09-23T00:05:20.544Z,15.96
2017-09-23T00:06:20.541Z,15.86
2017-09-23T00:07:20.544Z,15.88
2017-09-23T00:08:20.543Z,15.86
2017-09-23T00:09:20.543Z,15.85
2017-09-23T00:10:20.541Z,15.85
2017-09-23T00:11:20.538Z,15.84
2017-09-23T00:12:20.537Z,15.93
2017-09-23T00:13:20.537Z,15.88
2017-09-23T00:14:20.537Z,15.84
2017-09-23T00:15:20.530Z,15.84
2017-09-23T00:16:20.533Z,15.86
2017-09-23T00:17:20.527Z,15.84
2017-09-23T00:18:20.528Z,15.86
2017-09-23T00:19:20.524Z,15.85
2017-09-23T00:20:20.522Z,15.84
2017-09-23T00:21:20.523Z,15.81
2017-09-23T00:22:20.520Z,15.78
2017-09-23T00:23:20.526Z,15.84
2017-09-23T00:24:20.522Z,15.76
2017-09-23T00:25:20.521Z,15.77
2017-09-23T00:26:20.519Z,15.67
2017-09-23T00:27:20.518Z,15.70
2017-09-23T00:28:20.516Z,15.62
2017-09-23T00:29:20.515Z,15.53
2017-09-23T00:30:20.514Z,15.52
2017-09-23T00:31:20.506Z,15.53
2017-09-23T00:32:20.506Z,15.43
2017-09-23T00:33:20.506Z,15.35
2017-09-23T00:34:20.505Z,15.35
2017-09-23T00:35:20.500Z,15.41
2017-09-23T00:36:20.502Z,15.48
2017-09-23T00:37:20.499Z,15.38
2017-09-23T00:38:20.497Z,15.41
2017-09-23T00:39:20.499Z,15.41
2017-09-23T00:40:20.497Z,15.35
2017-09-23T00:41:20.496Z,15.38
2017-09-23T00:42:20.494Z,15.43
2017-09-23T00:43:20.493Z,15.41
2017-09-23T00:44:20.492Z,15.43
2017-09-23T00:45:20.491Z,15.46
2017-09-23T00:46:20.489Z,15.37
2017-09-23T00:47:20.483Z,15.31
2017-09-23T00:48:20.481Z,15.35
2017-09-23T00:49:20.479Z,15.30
2017-09-23T00:50:20.478Z,15.22
2017-09-23T00:51:20.476Z,15.16
2017-09-23T00:52:20.474Z,15.20
2017-09-23T00:53:20.474Z,15.19
2017-09-23T00:54:20.472Z,15.18
2017-09-23T00:55:20.474Z,15.20
2017-09-23T00:56:20.472Z,15.12
2017-09-23T00:57:20.471Z,15.15
2017-09-23T00:58:20.468Z,15.16
2017-09-23T00:59:20.467Z,15.13
2017-09-23T01:00:20.464Z,15.19
2017-09-23T01:01:20.464Z,15.15
2017-09-23T01:02:20.464Z,15.31
2017-09-23T01:03:20.456Z,15.28
2017-09-23T01:04:20.454Z,15.34
2017-09-23T01:05:20.453Z,15.31
2017-09-23T01:06:20.451Z,15.38
2017-09-23T01:07:20.449Z,15.35
2017-09-23T01:08:20.448Z,15.33
2017-09-23T01:09:20.447Z,15.44
2017-09-23T01:10:20.443Z,15.43
2017-09-23T01:11:20.447Z,15.51
2017-09-23T01:12:20.446Z,15.43
2017-09-23T01:13:20.444Z,15.49
2017-09-23T01:14:20.442Z,15.51
2017-09-23T01:15:20.440Z,15.55
2017-09-23T01:16:20.440Z,15.51
2017-09-23T01:17:20.442Z,15.56
2017-09-23T01:18:20.443Z,15.68
2017-09-23T01:19:20.430Z,15.56
2017-09-23T01:20:20.429Z,15.60
2017-09-23T01:21:20.428Z,15.58
2017-09-23T01:22:20.427Z,15.53
2017-09-23T01:23:20.425Z,15.59
2017-09-23T01:24:20.423Z,15.64
2017-09-23T01:25:20.422Z,15.62
2017-09-23T01:26:20.421Z,15.62
2017-09-23T01:27:20.423Z,15.67
2017-09-23T01:28:20.420Z,15.58
2017-09-23T01:29:20.419Z,15.66
2017-09-23T01:30:20.420Z,15.60
2017-09-23T01:31:20.417Z,15.60
2017-09-23T01:32:20.415Z,15.71
2017-09-23T01:33:20.413Z,15.64
2017-09-23T01:34:20.413Z,15.73
2017-09-23T01:35:20.406Z,15.70
2017-09-23T01:36:20.406Z,15.76
2017-09-23T01:37:20.404Z,15.76
2017-09-23T01:38:20.403Z,15.78
2017-09-23T01:39:20.401Z,15.77
2017-09-23T01:40:20.400Z,15.73
2017-09-23T01:41:20.398Z,15.71
2017-09-23T01:42:20.399Z,15.70
2017-09-23T01:43:20.400Z,15.73
2017-09-23T01:44:20.399Z,15.68
2017-09-23T01:45:20.397Z,15.77
2017-09-23T01:46:20.402Z,15.70
2017-09-23T01:47:20.398Z,15.78
2017-09-23T01:48:20.394Z,15.77
2017-09-23T01:49:20.392Z,15.77
2017-09-23T01:50:20.391Z,15.73
2017-09-23T01:51:20.385Z,15.76
2017-09-23T01:52:20.383Z,15.76
2017-09-23T01:53:20.383Z,15.74
2017-09-23T01:54:20.382Z,15.78
2017-09-23T01:55:20.384Z,15.80
2017-09-23T01:56:20.383Z,15.84
2017-09-23T01:57:20.381Z,15.78
2017-09-23T01:58:20.382Z,15.71
2017-09-23T01:59:20.374Z,15.71
2017-09-23T02:00:20.372Z,15.71
2017-09-23T02:01:20.373Z,15.76
2017-09-23T02:02:20.371Z,15.68
2017-09-23T02:03:20.369Z,15.76
2017-09-23T02:04:20.368Z,15.77
2017-09-23T02:05:20.367Z,15.76
2017-09-23T02:06:20.366Z,15.76
2017-09-23T02:07:20.368Z,15.76
2017-09-23T02:08:20.366Z,15.68
2017-09-23T02:09:20.368Z,15.67
2017-09-23T02:10:20.363Z,15.64
2017-09-23T02:11:20.361Z,15.64
2017-09-23T02:12:20.360Z,15.66
2017-09-23T02:13:20.358Z,15.53
2017-09-23T02:14:20.358Z,15.55
2017-09-23T02:15:20.351Z,15.60
2017-09-23T02:16:20.352Z,15.51
2017-09-23T02:17:20.349Z,15.52
2017-09-23T02:18:20.349Z,15.49
2017-09-23T02:19:20.345Z,15.46
2017-09-23T02:20:20.344Z,15.48
2017-09-23T02:21:20.344Z,15.51
2017-09-23T02:22:20.340Z,15.48
2017-09-23T02:23:20.383Z,15.41
2017-09-23T02:24:20.342Z,15.43
2017-09-23T02:25:20.341Z,15.48
2017-09-23T02:26:20.339Z,15.40
2017-09-23T02:27:20.337Z,15.48
2017-09-23T02:28:20.336Z,15.41
2017-09-23T02:29:20.335Z,15.49
2017-09-23T02:30:20.343Z,15.38
2017-09-23T02:31:20.327Z,15.38
2017-09-23T02:32:20.325Z,15.40
2017-09-23T02:33:20.324Z,15.48
2017-09-23T02:34:20.322Z,15.44
2017-09-23T02:35:20.320Z,15.44
2017-09-23T02:36:20.319Z,15.51
2017-09-23T02:37:20.318Z,15.52
2017-09-23T02:38:20.316Z,15.53
2017-09-23T02:39:20.320Z,15.58
2017-09-23T02:40:20.318Z,15.59
2017-09-23T02:41:20.323Z,15.62
2017-09-23T02:42:20.314Z,15.60
2017-09-23T02:43:20.313Z,15.53
2017-09-23T02:44:20.312Z,15.68
2017-09-23T02:45:20.309Z,15.55
2017-09-23T02:46:20.308Z,15.68
2017-09-23T02:47:20.302Z,15.64
2017-09-23T02:48:20.301Z,15.62
2017-09-23T02:49:20.300Z,15.56
2017-09-23T02:50:20.298Z,15.59
2017-09-23T02:51:20.296Z,15.53
2017-09-23T02:52:20.295Z,15.64
2017-09-23T02:53:20.293Z,15.59
2017-09-23T02:54:20.294Z,15.58
2017-09-23T02:55:20.295Z,15.56
2017-09-23T02:56:20.293Z,15.62
2017-09-23T02:57:20.292Z,15.68
2017-09-23T02:58:20.291Z,15.68
2017-09-23T02:59:20.286Z,15.62
2017-09-23T03:00:20.282Z,15.58
2017-09-23T03:01:20.281Z,15.59
2017-09-23T03:02:20.279Z,15.59
2017-09-23T03:03:20.288Z,15.59
2017-09-23T03:04:20.286Z,15.64
2017-09-23T03:05:20.281Z,15.62
2017-09-23T03:06:20.279Z,15.58
2017-09-23T03:07:20.276Z,15.60
2017-09-23T03:08:20.274Z,15.59
2017-09-23T03:09:20.273Z,15.64
2017-09-23T03:10:20.272Z,15.53
2017-09-23T03:11:20.267Z,15.59
2017-09-23T03:12:20.270Z,15.56
2017-09-23T03:13:20.263Z,15.60
2017-09-23T03:14:20.262Z,15.52
2017-09-23T03:15:20.259Z,15.56
2017-09-23T03:16:20.258Z,15.64
2017-09-23T03:17:20.256Z,15.64
2017-09-23T03:18:20.256Z,15.58
2017-09-23T03:19:20.258Z,15.71
2017-09-23T03:20:20.256Z,15.67
2017-09-23T03:21:20.255Z,15.66
2017-09-23T03:22:20.254Z,15.55
2017-09-23T03:23:20.252Z,15.66
2017-09-23T03:24:20.250Z,15.59
2017-09-23T03:25:20.248Z,15.55
2017-09-23T03:26:20.248Z,15.52
2017-09-23T03:27:20.248Z,15.52
2017-09-23T03:28:20.239Z,15.52
2017-09-23T03:29:20.239Z,15.49
2017-09-23T03:30:20.242Z,15.49
2017-09-23T03:31:20.236Z,15.49
2017-09-23T03:32:20.234Z,15.51
2017-09-23T03:33:20.233Z,15.56
2017-09-23T03:34:20.234Z,15.53
2017-09-23T03:35:20.235Z,15.55
2017-09-23T03:36:20.234Z,15.52
2017-09-23T03:37:20.232Z,15.55
2017-09-23T03:38:20.231Z,15.49
2017-09-23T03:39:20.229Z,15.58
2017-09-23T03:40:20.227Z,15.55
2017-09-23T03:41:20.231Z,15.52
2017-09-23T03:42:20.225Z,15.49
2017-09-23T03:43:20.218Z,15.53
2017-09-23T03:44:20.217Z,15.52
2017-09-23T03:45:20.214Z,15.52
2017-09-23T03:46:20.214Z,15.48
2017-09-23T03:47:20.214Z,15.49
2017-09-23T03:48:20.210Z,15.51
2017-09-23T03:49:20.210Z,15.55
2017-09-23T03:50:20.208Z,15.56
2017-09-23T03:51:20.211Z,15.51
2017-09-23T03:52:20.209Z,15.58
2017-09-23T03:53:20.207Z,15.58
2017-09-23T03:54:20.207Z,15.62
2017-09-23T03:55:20.205Z,15.67
2017-09-23T03:56:20.203Z,15.64
2017-09-23T03:57:20.202Z,15.58
2017-09-23T03:58:20.201Z,15.52
2017-09-23T03:59:20.193Z,15.55
2017-09-23T04:00:20.193Z,15.56
2017-09-23T04:01:20.192Z,15.64
2017-09-23T04:02:20.191Z,15.62
2017-09-23T04:03:20.193Z,15.62
2017-09-23T04:04:20.196Z,15.60
2017-09-23T04:05:20.191Z,15.67
2017-09-23T04:06:20.188Z,15.62
2017-09-23T04:07:20.183Z,15.60
2017-09-23T04:08:20.180Z,15.60
2017-09-23T04:09:20.179Z,15.70
2017-09-23T04:10:20.179Z,15.66
2017-09-23T04:11:20.175Z,15.66
2017-09-23T04:12:20.176Z,15.66
2017-09-23T04:13:20.174Z,15.67
2017-09-23T04:14:20.173Z,15.67
2017-09-23T04:15:20.174Z,15.67
2017-09-23T04:16:20.174Z,15.59
2017-09-23T04:17:20.171Z,15.64
2017-09-23T04:18:20.171Z,15.66
2017-09-23T04:19:20.170Z,15.64
2017-09-23T04:20:20.167Z,15.66
2017-09-23T04:21:20.167Z,15.70
2017-09-23T04:22:20.165Z,15.60
2017-09-23T04:23:20.159Z,15.70
2017-09-23T04:24:20.158Z,15.68
2017-09-23T04:25:20.160Z,15.66
2017-09-23T04:26:20.155Z,15.60
2017-09-23T04:27:20.152Z,15.64
2017-09-23T04:28:20.153Z,15.70
2017-09-23T04:29:20.151Z,15.64
2017-09-23T04:30:20.144Z,15.64
2017-09-23T04:31:20.136Z,15.59
2017-09-23T04:32:20.145Z,15.60
2017-09-23T04:33:20.134Z,15.56
2017-09-23T04:34:20.134Z,15.59
2017-09-23T04:35:20.130Z,15.55
2017-09-23T04:36:20.129Z,15.62
2017-09-23T04:37:20.126Z,15.48
2017-09-23T04:38:20.126Z,15.53
2017-09-23T04:39:20.120Z,15.56
2017-09-23T04:40:20.119Z,15.51
2017-09-23T04:41:20.117Z,15.48
2017-09-23T04:42:20.117Z,15.38
2017-09-23T04:43:20.113Z,15.46
2017-09-23T04:44:20.113Z,15.43
2017-09-23T04:45:20.112Z,15.35
2017-09-23T04:46:20.110Z,15.34
2017-09-23T04:47:20.112Z,15.33
2017-09-23T04:48:20.111Z,15.31
2017-09-23T04:49:20.109Z,15.35
2017-09-23T04:50:20.110Z,15.34
2017-09-23T04:51:20.104Z,15.35
2017-09-23T04:52:20.107Z,15.35
2017-09-23T04:53:20.102Z,15.33
2017-09-23T04:54:20.102Z,15.44
2017-09-23T04:55:20.094Z,15.34
2017-09-23T04:56:20.094Z,15.37
2017-09-23T04:57:20.093Z,15.33
2017-09-23T04:58:20.091Z,15.35
2017-09-23T04:59:20.095Z,15.33
2017-09-23T05:00:20.087Z,15.33
2017-09-23T05:01:20.084Z,15.35
2017-09-23T05:02:20.083Z,15.34
2017-09-23T05:03:20.086Z,15.38
2017-09-23T05:04:20.085Z,15.34
2017-09-23T05:05:20.083Z,15.40
2017-09-23T05:06:20.081Z,15.33
2017-09-23T05:07:20.081Z,15.31
2017-09-23T05:08:20.078Z,15.34
2017-09-23T05:09:20.077Z,15.35
2017-09-23T05:10:20.074Z,15.33
2017-09-23T05:11:20.068Z,15.34
2017-09-23T05:12:20.067Z,15.37
2017-09-23T05:13:20.065Z,15.27
2017-09-23T05:14:20.065Z,15.34
2017-09-23T05:15:20.062Z,15.20
2017-09-23T05:16:20.061Z,15.18
2017-09-23T05:17:20.060Z,15.25
2017-09-23T05:18:20.058Z,15.19
2017-09-23T05:19:20.060Z,15.16
2017-09-23T05:20:20.058Z,15.15
2017-09-23T05:21:20.056Z,15.23
2017-09-23T05:22:20.056Z,15.16
2017-09-23T05:23:20.052Z,15.19
2017-09-23T05:24:20.052Z,15.12
2017-09-23T05:25:20.050Z,15.12
2017-09-23T05:26:20.049Z,15.01
2017-09-23T05:27:20.042Z,15.04
2017-09-23T05:28:20.039Z,15.11
2017-09-23T05:29:20.038Z,15.05
2017-09-23T05:30:20.036Z,14.95
2017-09-23T05:31:20.034Z,14.93
2017-09-23T05:32:20.034Z,14.91
2017-09-23T05:33:20.031Z,14.87
2017-09-23T05:34:20.031Z,14.85
2017-09-23T05:35:20.030Z,14.90
2017-09-23T05:36:20.029Z,14.87
2017-09-23T05:37:20.028Z,14.86
2017-09-23T05:38:20.028Z,14.87
2017-09-23T05:39:20.023Z,14.90
2017-09-23T05:40:20.022Z,14.86
2017-09-23T05:41:20.021Z,14.93
2017-09-23T05:42:20.025Z,14.90
2017-09-23T05:43:20.015Z,14.95
2017-09-23T05:44:20.017Z,14.85
2017-09-23T05:45:20.010Z,14.95
2017-09-23T05:46:20.008Z,14.95
2017-09-23T05:47:20.005Z,14.95
2017-09-23T05:48:20.004Z,14.95
2017-09-23T05:49:20.002Z,14.95
2017-09-23T05:50:20.001Z,14.93
2017-09-23T05:51:20.003Z,14.94
2017-09-23T05:52:20.008Z,14.85
2017-09-23T05:53:19.999Z,14.87
2017-09-23T05:54:19.997Z,14.90
2017-09-23T05:55:19.995Z,14.98
2017-09-23T05:56:19.992Z,14.97
2017-09-23T05:57:19.991Z,15.00
2017-09-23T05:58:19.990Z,14.97
2017-09-23T05:59:19.983Z,14.97
2017-09-23T06:00:19.981Z,14.93
2017-09-23T06:01:19.980Z,14.93
2017-09-23T06:02:19.979Z,14.97
2017-09-23T06:03:19.976Z,14.97
2017-09-23T06:04:19.975Z,15.03
2017-09-23T06:05:19.971Z,15.00
2017-09-23T06:06:19.970Z,15.11
2017-09-23T06:07:19.971Z,15.15
2017-09-23T06:08:19.971Z,15.12
2017-09-23T06:09:19.969Z,15.19
2017-09-23T06:10:19.965Z,15.13
2017-09-23T06:11:19.959Z,15.18
2017-09-23T06:12:19.957Z,15.18
2017-09-23T06:13:19.958Z,15.04
2017-09-23T06:14:19.961Z,15.05
2017-09-23T06:15:19.957Z,14.98
2017-09-23T06:16:19.958Z,14.98
2017-09-23T06:17:19.954Z,15.04
2017-09-23T06:18:19.952Z,15.05
2017-09-23T06:19:19.956Z,15.03
2017-09-23T06:20:19.949Z,15.11
2017-09-23T06:21:19.949Z,15.25
2017-09-23T06:22:19.968Z,15.35
2017-09-23T06:23:19.940Z,15.38
2017-09-23T06:24:19.939Z,15.53
2017-09-23T06:25:19.942Z,15.73
2017-09-23T06:26:19.936Z,15.98
2017-09-23T06:27:19.933Z,16.03
2017-09-23T06:28:19.933Z,16.23
2017-09-23T06:29:19.931Z,16.27
2017-09-23T06:30:19.929Z,16.40
2017-09-23T06:31:19.935Z,16.40
2017-09-23T06:32:19.931Z,16.45
2017-09-23T06:33:19.930Z,16.45
2017-09-23T06:34:19.930Z,16.54
2017-09-23T06:35:19.927Z,16.57
2017-09-23T06:36:19.926Z,16.63
2017-09-23T06:37:19.926Z,16.77
2017-09-23T06:38:19.925Z,16.81
2017-09-23T06:39:19.918Z,16.92
2017-09-23T06:40:19.919Z,16.90
2017-09-23T06:41:19.917Z,16.91
2017-09-23T06:42:19.917Z,16.96
2017-09-23T06:43:19.916Z,17.02
2017-09-23T06:44:19.914Z,17.10
2017-09-23T06:45:19.913Z,17.22
2017-09-23T06:46:19.915Z,17.25
2017-09-23T06:47:19.916Z,17.17
2017-09-23T06:48:19.915Z,17.24
2017-09-23T06:49:19.917Z,17.25
2017-09-23T06:50:19.915Z,17.21
2017-09-23T06:51:19.916Z,17.22
2017-09-23T06:52:19.914Z,17.27
2017-09-23T06:53:19.913Z,17.30
2017-09-23T06:54:19.913Z,17.32
2017-09-23T06:55:19.908Z,17.33
2017-09-23T06:56:19.908Z,17.36
2017-09-23T06:57:19.908Z,17.28
2017-09-23T06:58:19.908Z,17.18
2017-09-23T06:59:19.906Z,17.17
2017-09-23T07:00:19.907Z,17.15
2017-09-23T07:01:19.907Z,17.09
2017-09-23T07:02:19.905Z,17.14
2017-09-23T07:03:19.907Z,17.10
2017-09-23T07:04:19.907Z,17.03
2017-09-23T07:05:19.908Z,16.95
2017-09-23T07:06:19.908Z,16.96
2017-09-23T07:07:19.908Z,16.85
2017-09-23T07:08:19.905Z,16.87
2017-09-23T07:09:19.906Z,16.82
2017-09-23T07:10:19.909Z,16.82
2017-09-23T07:11:19.900Z,16.78
2017-09-23T07:12:19.900Z,16.84
2017-09-23T07:13:19.900Z,16.91
2017-09-23T07:14:19.899Z,16.92
2017-09-23T07:15:19.903Z,16.95
2017-09-23T07:16:19.902Z,16.96
2017-09-23T07:17:19.901Z,17.02
2017-09-23T07:18:19.906Z,17.22
2017-09-23T07:19:19.896Z,17.32
2017-09-23T07:20:19.901Z,17.46
2017-09-23T07:21:19.897Z,17.47
2017-09-23T07:22:19.895Z,17.53
2017-09-23T07:23:19.893Z,17.57
2017-09-23T07:24:19.893Z,17.62
2017-09-23T07:25:19.892Z,17.62
2017-09-23T07:26:19.893Z,17.65
2017-09-23T07:27:19.896Z,17.47
2017-09-23T07:28:19.895Z,17.55
2017-09-23T07:29:19.896Z,17.53
2017-09-23T07:30:19.896Z,17.57
2017-09-23T07:31:19.896Z,17.53
2017-09-23T07:32:19.897Z,17.62
2017-09-23T07:33:19.895Z,17.49
2017-09-23T07:34:19.897Z,17.57
2017-09-23T07:35:19.890Z,17.54
2017-09-23T07:36:19.890Z,17.51
2017-09-23T07:37:19.888Z,17.57
2017-09-23T07:38:19.889Z,17.53
2017-09-23T07:39:19.890Z,17.54
2017-09-23T07:40:19.889Z,17.51
2017-09-23T07:41:19.908Z,17.47
2017-09-23T07:42:19.887Z,17.54
2017-09-23T07:43:19.891Z,17.42
2017-09-23T07:44:19.892Z,17.51
2017-09-23T07:45:19.890Z,17.43
2017-09-23T07:46:19.895Z,17.42
2017-09-23T07:47:19.891Z,17.40
2017-09-23T07:48:19.895Z,17.46
2017-09-23T07:49:19.890Z,17.47
2017-09-23T07:50:19.891Z,17.40
2017-09-23T07:51:19.885Z,17.38
2017-09-23T07:52:19.884Z,17.46
2017-09-23T07:53:19.886Z,17.43
2017-09-23T07:54:19.885Z,17.45
2017-09-23T07:55:19.884Z,17.36
2017-09-23T07:56:19.884Z,17.40
2017-09-23T07:57:19.882Z,17.42
2017-09-23T07:58:19.882Z,17.49
2017-09-23T07:59:19.887Z,17.54
2017-09-23T08:00:19.888Z,17.46
2017-09-23T08:01:19.885Z,17.51
2017-09-23T08:02:19.886Z,17.53
2017-09-23T08:03:19.884Z,17.51
2017-09-23T08:04:19.885Z,17.47
2017-09-23T08:05:19.885Z,17.45
2017-09-23T08:06:19.885Z,17.45
2017-09-23T08:07:19.880Z,17.46
2017-09-23T08:08:19.878Z,17.49
2017-09-23T08:09:19.879Z,17.45
2017-09-23T08:10:19.879Z,17.51
2017-09-23T08:11:19.880Z,17.55
2017-09-23T08:12:19.878Z,17.58
2017-09-23T08:13:19.877Z,17.68
2017-09-23T08:14:19.876Z,17.57
2017-09-23T08:15:19.880Z,17.66
2017-09-23T08:16:19.880Z,17.70
2017-09-23T08:17:19.880Z,17.66
2017-09-23T08:18:19.880Z,17.60
2017-09-23T08:19:19.875Z,17.71
2017-09-23T08:20:19.876Z,17.87
2017-09-23T08:21:19.874Z,17.80
2017-09-23T08:22:19.876Z,17.81
2017-09-23T08:23:19.877Z,17.89
2017-09-23T08:24:19.878Z,17.95
2017-09-23T08:25:19.878Z,18.10
2017-09-23T08:26:19.877Z,18.11
2017-09-23T08:27:19.877Z,18.25
2017-09-23T08:28:19.878Z,18.31
2017-09-23T08:29:19.878Z,18.38
2017-09-23T08:30:19.879Z,18.34
2017-09-23T08:31:19.872Z,18.21
2017-09-23T08:32:19.874Z,18.32
2017-09-23T08:33:19.873Z,18.50
2017-09-23T08:34:19.874Z,18.64
2017-09-23T08:35:19.874Z,18.68
2017-09-23T08:36:19.873Z,18.69
2017-09-23T08:37:19.874Z,18.79
2017-09-23T08:38:19.874Z,18.89
2017-09-23T08:39:19.879Z,18.93
2017-09-23T08:40:19.880Z,19.02
2017-09-23T08:41:19.881Z,19.02
2017-09-23T08:42:19.880Z,19.10
2017-09-23T08:43:19.881Z,19.40
2017-09-23T08:44:19.882Z,19.82
2017-09-23T08:45:19.882Z,21.06
2017-09-23T08:46:19.882Z,22.14
2017-09-23T08:47:19.878Z,23.11
2017-09-23T08:48:19.881Z,24.05
2017-09-23T08:49:19.882Z,24.23
2017-09-23T08:50:19.885Z,24.00
2017-09-23T08:51:19.886Z,23.63
2017-09-23T08:52:19.889Z,23.15
2017-09-23T08:53:19.892Z,22.66
2017-09-23T08:54:19.895Z,22.14
2017-09-23T08:55:19.900Z,21.64
2017-09-23T08:56:19.904Z,21.45
2017-09-23T08:57:19.908Z,21.55
2017-09-23T08:58:19.913Z,21.53
2017-09-23T08:59:19.915Z,21.16
2017-09-23T09:00:19.919Z,21.24
2017-09-23T09:01:19.923Z,20.96
2017-09-23T09:02:19.927Z,20.66
2017-09-23T09:03:19.927Z,20.38
2017-09-23T09:04:19.930Z,19.90
2017-09-23T09:05:19.935Z,19.87
2017-09-23T09:06:19.939Z,20.23
2017-09-23T09:07:19.941Z,20.30
2017-09-23T09:08:19.945Z,20.46
2017-09-23T09:09:19.949Z,20.50
2017-09-23T09:10:19.953Z,20.76
2017-09-23T09:11:19.960Z,21.01
2017-09-23T09:12:19.974Z,21.45
2017-09-23T09:13:19.967Z,21.98
2017-09-23T09:14:19.973Z,22.44
2017-09-23T09:15:19.974Z,22.85
2017-09-23T09:16:19.979Z,22.97
2017-09-23T09:17:19.982Z,23.74
2017-09-23T09:18:19.986Z,24.48
2017-09-23T09:19:19.985Z,25.16
2017-09-23T09:20:19.988Z,26.21
2017-09-23T09:21:19.995Z,27.38
2017-09-23T09:22:19.998Z,27.98
2017-09-23T09:23:20.002Z,28.52
2017-09-23T09:24:20.007Z,28.32
2017-09-23T09:25:20.012Z,26.12
2017-09-23T09:26:20.019Z,25.29
2017-09-23T09:27:20.028Z,25.82
2017-09-23T09:28:20.035Z,26.27
2017-09-23T09:29:20.042Z,26.71
2017-09-23T09:30:20.049Z,27.50
2017-09-23T09:31:20.054Z,28.70
2017-09-23T09:32:20.061Z,29.45
2017-09-23T09:33:20.072Z,30.18
2017-09-23T09:34:20.076Z,29.76
2017-09-23T09:35:20.080Z,29.82
2017-09-23T09:36:20.111Z,29.86
2017-09-23T09:37:20.096Z,29.08
2017-09-23T09:38:20.103Z,28.21
2017-09-23T09:39:20.112Z,27.86
2017-09-23T09:40:20.122Z,28.23
2017-09-23T09:41:20.133Z,28.80
2017-09-23T09:42:20.141Z,28.15
2017-09-23T09:43:20.153Z,26.96
2017-09-23T09:44:20.164Z,27.48
2017-09-23T09:45:20.175Z,28.01
2017-09-23T09:46:20.183Z,27.98
2017-09-23T09:47:20.193Z,29.20
2017-09-23T09:48:20.202Z,29.39
2017-09-23T09:49:20.213Z,30.23
2017-09-23T09:50:20.222Z,31.04
2017-09-23T09:51:20.227Z,31.87
2017-09-23T09:52:20.239Z,32.76
2017-09-23T09:53:20.252Z,33.53
2017-09-23T09:54:20.267Z,33.72
2017-09-23T09:55:20.274Z,33.92
2017-09-23T09:56:20.305Z,33.81
2017-09-23T09:57:20.299Z,33.50
2017-09-23T09:58:20.307Z,32.05
2017-09-23T09:59:20.321Z,30.81
2017-09-23T10:00:20.334Z,29.97
2017-09-23T10:01:20.347Z,30.19
2017-09-23T10:02:20.361Z,30.19
2017-09-23T10:03:20.370Z,28.95
2017-09-23T10:04:20.383Z,28.55
2017-09-23T10:05:20.394Z,28.67
2017-09-23T10:06:20.407Z,28.46
2017-09-23T10:07:20.414Z,27.88
2017-09-23T10:08:20.428Z,26.53
2017-09-23T10:09:20.437Z,26.78
2017-09-23T10:10:20.448Z,27.02
2017-09-23T10:11:20.460Z,27.08
2017-09-23T10:12:20.473Z,27.38
2017-09-23T10:13:20.483Z,27.15
2017-09-23T10:14:20.496Z,26.72
2017-09-23T10:15:20.507Z,26.94
2017-09-23T10:16:20.518Z,26.78
2017-09-23T10:17:20.530Z,27.52
2017-09-23T10:18:20.539Z,28.14
2017-09-23T10:19:20.552Z,28.24
2017-09-23T10:20:20.561Z,28.25
2017-09-23T10:21:20.572Z,27.88
2017-09-23T10:22:20.583Z,26.69
2017-09-23T10:23:20.589Z,24.83
2017-09-23T10:24:20.600Z,23.79
2017-09-23T10:25:20.612Z,22.96
2017-09-23T10:26:20.620Z,22.88
2017-09-23T10:27:20.633Z,23.01
2017-09-23T10:28:20.644Z,23.15
2017-09-23T10:29:20.653Z,22.75
2017-09-23T10:30:20.662Z,22.89
2017-09-23T10:31:20.666Z,22.85
2017-09-23T10:32:20.675Z,22.46
2017-09-23T10:33:20.682Z,22.86
2017-09-23T10:34:20.691Z,23.74
2017-09-23T10:35:20.698Z,24.77
2017-09-23T10:36:20.708Z,24.82
2017-09-23T10:37:20.715Z,25.07
2017-09-23T10:38:20.734Z,25.54
2017-09-23T10:39:20.735Z,25.17
2017-09-23T10:40:20.741Z,25.05
2017-09-23T10:41:20.749Z,24.30
2017-09-23T10:42:20.759Z,23.44
2017-09-23T10:43:20.763Z,22.70
2017-09-23T10:44:20.776Z,22.36
2017-09-23T10:45:20.778Z,22.19
2017-09-23T10:46:20.784Z,22.21
2017-09-23T10:47:20.808Z,22.35
2017-09-23T10:48:20.793Z,22.49
2017-09-23T10:49:20.799Z,22.23
2017-09-23T10:50:20.807Z,22.24
2017-09-23T10:51:20.812Z,21.91
2017-09-23T10:52:20.818Z,21.51
2017-09-23T10:53:20.825Z,21.61
2017-09-23T10:54:20.831Z,21.75
2017-09-23T10:55:20.839Z,21.71
2017-09-23T10:56:20.845Z,21.58
2017-09-23T10:57:20.850Z,21.40
2017-09-23T10:58:20.859Z,21.34
2017-09-23T10:59:20.860Z,21.46
2017-09-23T11:00:20.865Z,22.04
2017-09-23T11:01:20.871Z,22.35
2017-09-23T11:02:20.876Z,22.66
2017-09-23T11:03:20.875Z,23.38
2017-09-23T11:04:20.880Z,23.47
2017-09-23T11:05:20.886Z,23.18
2017-09-23T11:06:20.892Z,22.97
2017-09-23T11:07:20.896Z,22.81
2017-09-23T11:08:20.900Z,22.44
2017-09-23T11:09:20.905Z,22.96
2017-09-23T11:10:20.912Z,22.66
2017-09-23T11:11:20.921Z,22.82
2017-09-23T11:12:20.926Z,23.19
2017-09-23T11:13:20.931Z,22.94
2017-09-23T11:14:20.938Z,22.82
2017-09-23T11:15:20.941Z,22.41
2017-09-23T11:16:20.947Z,22.15
2017-09-23T11:17:20.954Z,22.14
2017-09-23T11:18:20.960Z,21.70
2017-09-23T11:19:20.960Z,21.67
2017-09-23T11:20:20.964Z,21.73
2017-09-23T11:21:20.975Z,21.48
2017-09-23T11:22:20.976Z,21.27
2017-09-23T11:23:20.979Z,21.30
2017-09-23T11:24:20.986Z,21.53
2017-09-23T11:25:20.990Z,22.08
2017-09-23T11:26:20.995Z,22.42
2017-09-23T11:27:21.002Z,22.66
2017-09-23T11:28:21.008Z,22.61
2017-09-23T11:29:21.013Z,22.97
2017-09-23T11:30:21.016Z,23.23
2017-09-23T11:31:21.017Z,23.34
2017-09-23T11:32:21.022Z,23.39
2017-09-23T11:33:21.025Z,23.41
2017-09-23T11:34:21.031Z,22.31
2017-09-23T11:35:21.040Z,21.61
2017-09-23T11:36:21.046Z,21.40
2017-09-23T11:37:21.049Z,21.58
2017-09-23T11:38:21.053Z,21.63
2017-09-23T11:39:21.056Z,21.77
2017-09-23T11:40:21.062Z,22.05
2017-09-23T11:41:21.067Z,22.20
2017-09-23T11:42:21.072Z,22.19
2017-09-23T11:43:21.070Z,21.91
2017-09-23T11:44:21.076Z,21.67
2017-09-23T11:45:21.078Z,21.55
2017-09-23T11:46:21.083Z,21.58
2017-09-23T11:47:21.086Z,21.52
2017-09-23T11:48:21.092Z,21.82
2017-09-23T11:49:21.094Z,21.79
2017-09-23T11:50:21.098Z,21.73
2017-09-23T11:51:21.106Z,21.85
2017-09-23T11:52:21.110Z,21.75
2017-09-23T11:53:21.113Z,21.73
2017-09-23T11:54:21.118Z,21.83
2017-09-23T11:55:21.121Z,21.85
2017-09-23T11:56:21.127Z,21.83
2017-09-23T11:57:21.129Z,22.17
2017-09-23T11:58:21.133Z,22.42
2017-09-23T11:59:21.136Z,22.59
2017-09-23T12:00:21.146Z,22.63
2017-09-23T12:01:21.140Z,22.67
2017-09-23T12:02:21.145Z,22.59
2017-09-23T12:03:21.147Z,22.76
2017-09-23T12:04:21.152Z,22.97
2017-09-23T12:05:21.157Z,22.94
2017-09-23T12:06:21.160Z,22.85
2017-09-23T12:07:21.167Z,22.91
2017-09-23T12:08:21.170Z,22.96
2017-09-23T12:09:21.178Z,22.69
2017-09-23T12:10:21.180Z,22.66
2017-09-23T12:11:21.215Z,22.33
2017-09-23T12:12:21.187Z,21.73
2017-09-23T12:13:21.189Z,21.59
2017-09-23T12:14:21.194Z,21.43
2017-09-23T12:15:21.193Z,21.59
2017-09-23T12:16:21.197Z,21.74
2017-09-23T12:17:21.201Z,21.70
2017-09-23T12:18:21.203Z,21.86
2017-09-23T12:19:21.207Z,21.98
2017-09-23T12:20:21.211Z,21.53
2017-09-23T12:21:21.222Z,21.31
2017-09-23T12:22:21.218Z,21.48
2017-09-23T12:23:21.226Z,21.51
2017-09-23T12:24:21.229Z,21.61
2017-09-23T12:25:21.233Z,21.66
2017-09-23T12:26:21.241Z,21.63
2017-09-23T12:27:21.238Z,21.71
2017-09-23T12:28:21.242Z,21.59
2017-09-23T12:29:21.244Z,21.61
2017-09-23T12:30:21.248Z,21.66
2017-09-23T12:31:21.246Z,21.70
2017-09-23T12:32:21.250Z,21.91
2017-09-23T12:33:21.254Z,22.05
2017-09-23T12:34:21.264Z,22.05
2017-09-23T12:35:21.265Z,21.70
2017-09-23T12:36:21.267Z,21.49
2017-09-23T12:37:21.270Z,21.49
2017-09-23T12:38:21.272Z,21.55
2017-09-23T12:39:21.272Z,21.59
2017-09-23T12:40:21.275Z,21.46
2017-09-23T12:41:21.278Z,21.43
2017-09-23T12:42:21.280Z,21.13
2017-09-23T12:43:21.284Z,21.18
2017-09-23T12:44:21.286Z,21.11
2017-09-23T12:45:21.290Z,21.00
2017-09-23T12:46:21.292Z,21.11
2017-09-23T12:47:21.298Z,21.18
2017-09-23T12:48:21.321Z,21.26
2017-09-23T12:49:21.305Z,21.33
2017-09-23T12:50:21.310Z,21.34
2017-09-23T12:51:21.310Z,21.30
2017-09-23T12:52:21.314Z,21.19